createdAt,value
2019-02-28T00:00:40.640Z,8.22
2019-02-28T00:03:27.264Z,8.14
2019-02-28T00:06:12.941Z,8.11
2019-02-28T00:08:58.652Z,8.07
2019-02-28T00:11:44.044Z,7.93
2019-02-28T00:14:29.507Z,8.16
2019-02-28T00:17:14.848Z,8.25
2019-02-28T00:20:00.351Z,8.31
2019-02-28T00:22:48.434Z,8.44
2019-02-28T00:25:37.709Z,8.50
2019-02-28T00:28:23.158Z,8.52
2019-02-28T00:31:08.272Z,8.53
2019-02-28T00:33:54.420Z,8.59
2019-02-28T00:36:40.061Z,8.49
2019-02-28T00:39:25.388Z,8.38
2019-02-28T00:42:11.770Z,8.55
2019-02-28T00:44:57.517Z,8.62
2019-02-28T00:47:43.102Z,8.55
2019-02-28T00:50:28.722Z,8.54
2019-02-28T00:53:14.174Z,8.48
2019-02-28T00:55:59.848Z,8.47
2019-02-28T00:58:45.708Z,8.49
2019-02-28T01:01:31.268Z,8.38
2019-02-28T01:04:17.356Z,8.44
2019-02-28T01:07:02.925Z,8.28
2019-02-28T01:09:48.280Z,8.34
2019-02-28T01:12:35.405Z,8.49
2019-02-28T01:15:20.698Z,8.51
2019-02-28T01:18:06.184Z,8.44
2019-02-28T01:20:51.925Z,8.56
2019-02-28T01:23:37.480Z,8.61
2019-02-28T01:26:22.829Z,8.61
2019-02-28T01:29:08.475Z,8.68
2019-02-28T01:31:54.048Z,8.76
2019-02-28T01:34:40.096Z,8.76
2019-02-28T01:37:25.640Z,8.70
2019-02-28T01:40:11.411Z,8.58
2019-02-28T01:42:56.976Z,8.62
2019-02-28T01:45:45.188Z,8.64
2019-02-28T01:48:30.876Z,8.58
2019-02-28T01:51:16.268Z,8.52
2019-02-28T01:54:01.754Z,8.51
2019-02-28T01:56:47.216Z,8.54
2019-02-28T01:59:32.536Z,8.52
2019-02-28T02:02:18.304Z,8.61
2019-02-28T02:05:04.557Z,8.52
2019-02-28T02:07:51.332Z,8.47
2019-02-28T02:10:36.932Z,8.38
2019-02-28T02:13:22.201Z,8.30
2019-02-28T02:16:07.532Z,8.07
2019-02-28T02:18:52.920Z,8.22
2019-02-28T02:21:38.239Z,8.18
2019-02-28T02:24:27.974Z,8.09
2019-02-28T02:27:11.973Z,7.97
2019-02-28T02:29:57.237Z,7.98
2019-02-28T02:32:42.676Z,8.05
2019-02-28T02:35:28.266Z,7.95
2019-02-28T02:38:13.994Z,7.83
2019-02-28T02:41:01.032Z,7.83
2019-02-28T02:43:46.666Z,7.93
2019-02-28T02:46:32.125Z,7.93
2019-02-28T02:49:19.860Z,7.94
2019-02-28T02:52:05.088Z,7.77
2019-02-28T02:54:52.241Z,7.80
2019-02-28T02:57:38.154Z,7.88
2019-02-28T03:00:24.155Z,7.70
2019-02-28T03:03:09.464Z,7.70
2019-02-28T03:05:54.733Z,7.66
2019-02-28T03:08:40.450Z,7.57
2019-02-28T03:11:26.231Z,7.56
2019-02-28T03:14:16.350Z,7.50
2019-02-28T03:16:59.781Z,7.46
2019-02-28T03:19:45.183Z,7.45
2019-02-28T03:22:30.660Z,7.38
2019-02-28T03:25:16.262Z,7.21
2019-02-28T03:28:01.856Z,7.17
2019-02-28T03:30:47.677Z,7.17
2019-02-28T03:33:33.274Z,6.92
2019-02-28T03:36:19.180Z,6.96
2019-02-28T03:39:05.816Z,7.06
2019-02-28T03:41:52.916Z,7.00
2019-02-28T03:44:39.330Z,6.93
2019-02-28T03:47:25.213Z,6.85
2019-02-28T03:50:10.852Z,6.81
2019-02-28T03:52:56.375Z,6.81
2019-02-28T03:55:41.792Z,6.82
2019-02-28T03:58:27.573Z,6.88
2019-02-28T04:01:13.393Z,6.88
2019-02-28T04:03:58.705Z,6.97
2019-02-28T04:06:44.397Z,6.86
2019-02-28T04:09:29.845Z,6.91
2019-02-28T04:12:15.328Z,6.92
2019-02-28T04:15:00.939Z,6.92
2019-02-28T04:17:46.736Z,6.76
2019-02-28T04:20:37.583Z,6.80
2019-02-28T04:23:20.302Z,6.80
2019-02-28T04:26:05.919Z,6.83
2019-02-28T04:28:54.722Z,6.81
2019-02-28T04:31:39.022Z,6.98
2019-02-28T04:34:24.456Z,7.03
2019-02-28T04:37:10.075Z,6.89
2019-02-28T04:39:55.606Z,6.67
2019-02-28T04:42:41.370Z,6.75
2019-02-28T04:45:27.071Z,6.66
2019-02-28T04:48:14.024Z,6.66
2019-02-28T04:51:02.262Z,6.51
2019-02-28T04:53:52.783Z,6.51
2019-02-28T04:56:35.452Z,6.69
2019-02-28T04:59:21.130Z,6.73
2019-02-28T05:02:06.548Z,6.65
2019-02-28T05:04:52.713Z,6.72
2019-02-28T05:07:38.204Z,6.72
2019-02-28T05:10:23.610Z,6.87
2019-02-28T05:13:11.461Z,6.88
2019-02-28T05:15:56.566Z,6.84
2019-02-28T05:18:42.015Z,6.89
2019-02-28T05:21:28.054Z,6.81
2019-02-28T05:24:13.633Z,6.92
2019-02-28T05:27:00.334Z,6.95
2019-02-28T05:29:47.044Z,6.93
2019-02-28T05:32:35.648Z,6.96
2019-02-28T05:35:25.547Z,6.87
2019-02-28T05:38:07.654Z,6.88
2019-02-28T05:40:55.458Z,6.86
2019-02-28T05:43:41.610Z,6.77
2019-02-28T05:46:26.997Z,6.75
2019-02-28T05:49:12.934Z,6.75
2019-02-28T05:51:59.767Z,6.61
2019-02-28T05:54:47.358Z,6.47
2019-02-28T05:57:33.062Z,6.35
2019-02-28T06:00:20.231Z,6.48
2019-02-28T06:03:05.820Z,6.48
2019-02-28T06:05:51.491Z,6.43
2019-02-28T06:08:39.141Z,6.51
2019-02-28T06:11:24.578Z,6.56
2019-02-28T06:14:10.230Z,6.56
2019-02-28T06:16:55.777Z,6.67
2019-02-28T06:19:43.567Z,6.81
2019-02-28T06:22:31.079Z,6.81
2019-02-28T06:25:23.856Z,6.81
2019-02-28T06:28:03.876Z,6.90
2019-02-28T06:30:49.378Z,6.95
2019-02-28T06:33:35.382Z,7.01
2019-02-28T06:36:20.666Z,7.10
2019-02-28T06:39:07.023Z,6.91
2019-02-28T06:41:52.326Z,7.12
2019-02-28T06:44:37.736Z,6.99
2019-02-28T06:47:23.398Z,7.14
2019-02-28T06:50:12.954Z,7.11
2019-02-28T06:52:59.318Z,7.31
2019-02-28T06:55:48.702Z,7.33
2019-02-28T06:58:34.068Z,7.80
2019-02-28T07:01:22.645Z,7.83
2019-02-28T07:04:06.851Z,7.78
2019-02-28T07:06:52.426Z,7.58
2019-02-28T07:09:38.024Z,7.49
2019-02-28T07:12:29.158Z,7.70
2019-02-28T07:15:11.339Z,7.87
2019-02-28T07:17:56.588Z,8.21
2019-02-28T07:20:41.987Z,8.90
2019-02-28T07:23:30.076Z,8.37
2019-02-28T07:26:14.972Z,8.50
2019-02-28T07:29:00.664Z,8.91
2019-02-28T07:31:45.970Z,9.05
2019-02-28T07:34:31.429Z,9.37
2019-02-28T07:37:19.018Z,9.80
2019-02-28T07:40:05.133Z,10.03
2019-02-28T07:42:50.426Z,10.63
2019-02-28T07:45:36.147Z,10.00
2019-02-28T07:48:26.508Z,10.33
2019-02-28T07:51:09.311Z,10.50
2019-02-28T07:53:54.923Z,10.26
2019-02-28T07:56:43.118Z,11.19
2019-02-28T07:59:28.048Z,11.09
2019-02-28T08:02:13.685Z,10.83
2019-02-28T08:04:59.425Z,10.60
2019-02-28T08:07:50.490Z,10.49
2019-02-28T08:10:33.157Z,10.86
2019-02-28T08:13:19.213Z,10.73
2019-02-28T08:16:04.551Z,11.51
2019-02-28T08:18:51.276Z,11.39
2019-02-28T08:21:43.979Z,11.31
2019-02-28T08:24:26.585Z,11.66
2019-02-28T08:27:12.541Z,11.66
2019-02-28T08:29:57.951Z,12.18
2019-02-28T08:32:46.046Z,11.48
2019-02-28T08:35:34.875Z,11.90
2019-02-28T08:38:18.079Z,11.54
2019-02-28T08:41:03.639Z,10.99
2019-02-28T08:43:49.291Z,10.37
2019-02-28T08:46:34.699Z,11.16
2019-02-28T08:49:20.335Z,12.25
2019-02-28T08:52:07.968Z,12.57
2019-02-28T08:54:53.514Z,12.92
2019-02-28T08:57:42.054Z,10.32
2019-02-28T09:00:31.700Z,10.79
2019-02-28T09:03:15.166Z,10.58
2019-02-28T09:06:03.831Z,10.86
2019-02-28T09:08:48.750Z,10.22
2019-02-28T09:11:34.083Z,10.62
2019-02-28T09:14:19.747Z,11.16
2019-02-28T09:17:05.339Z,11.92
2019-02-28T09:19:50.659Z,12.50
2019-02-28T09:22:36.116Z,12.64
2019-02-28T09:25:22.759Z,12.75
2019-02-28T09:28:10.203Z,11.92
2019-02-28T09:30:56.390Z,10.74
2019-02-28T09:33:41.923Z,10.85
2019-02-28T09:36:27.675Z,11.15
2019-02-28T09:39:16.387Z,10.72
2019-02-28T09:42:00.746Z,10.83
2019-02-28T09:44:46.492Z,11.25
2019-02-28T09:47:32.487Z,11.66
2019-02-28T09:50:19.358Z,11.40
2019-02-28T09:53:06.090Z,11.81
2019-02-28T09:55:51.692Z,12.28
2019-02-28T09:58:37.036Z,13.39
2019-02-28T10:01:24.409Z,13.92
2019-02-28T10:04:10.423Z,13.18
2019-02-28T10:06:56.868Z,13.06
2019-02-28T10:09:44.204Z,13.34
2019-02-28T10:12:30.464Z,13.65
2019-02-28T10:15:17.481Z,13.28
2019-02-28T10:18:04.450Z,12.64
2019-02-28T10:20:50.560Z,13.38
2019-02-28T10:23:35.969Z,13.53
2019-02-28T10:26:21.916Z,13.68
2019-02-28T10:29:08.143Z,13.77
2019-02-28T10:31:54.031Z,13.43
2019-02-28T10:34:39.684Z,14.10
2019-02-28T10:37:25.112Z,14.58
2019-02-28T10:40:14.261Z,13.40
2019-02-28T10:43:00.838Z,13.98
2019-02-28T10:45:46.225Z,14.10
2019-02-28T10:48:32.096Z,14.80
2019-02-28T10:51:17.426Z,14.82
2019-02-28T10:54:03.331Z,14.85
2019-02-28T10:56:48.856Z,14.54
2019-02-28T10:59:34.288Z,14.03
2019-02-28T11:02:20.065Z,13.78
2019-02-28T11:05:07.970Z,14.08
2019-02-28T11:07:53.650Z,14.26
2019-02-28T11:10:43.052Z,13.95
2019-02-28T11:13:28.567Z,14.25
2019-02-28T11:16:15.684Z,15.12
2019-02-28T11:19:01.164Z,14.78
2019-02-28T11:21:47.072Z,14.34
2019-02-28T11:24:32.688Z,14.46
2019-02-28T11:27:19.722Z,13.59
2019-02-28T11:30:07.440Z,13.57
2019-02-28T11:32:54.152Z,13.18
2019-02-28T11:35:39.791Z,13.35
2019-02-28T11:38:25.596Z,13.61
2019-02-28T11:41:11.380Z,13.95
2019-02-28T11:43:57.241Z,14.16
2019-02-28T11:46:43.780Z,15.00
2019-02-28T11:49:30.148Z,15.60
2019-02-28T11:52:16.081Z,16.29
2019-02-28T11:55:01.653Z,15.43
2019-02-28T11:57:47.408Z,15.76
2019-02-28T12:00:35.667Z,15.40
2019-02-28T12:03:20.060Z,16.52
2019-02-28T12:06:06.859Z,16.02
2019-02-28T12:08:54.400Z,15.92
2019-02-28T12:11:39.808Z,15.34
2019-02-28T12:14:26.488Z,14.66
2019-02-28T12:17:15.020Z,15.34
2019-02-28T12:20:03.867Z,15.34
2019-02-28T12:22:50.847Z,15.21
2019-02-28T12:25:39.527Z,14.83
2019-02-28T12:28:24.981Z,14.91
2019-02-28T12:31:11.318Z,14.76
2019-02-28T12:33:57.717Z,14.95
2019-02-28T12:36:46.335Z,15.00
2019-02-28T12:39:33.339Z,14.80
2019-02-28T12:42:19.362Z,14.44
2019-02-28T12:45:08.374Z,14.46
2019-02-28T12:47:54.401Z,14.72
2019-02-28T12:50:40.437Z,14.48
2019-02-28T12:53:26.600Z,14.39
2019-02-28T12:56:14.226Z,14.29
2019-02-28T12:59:00.417Z,14.57
2019-02-28T13:01:46.516Z,14.76
2019-02-28T13:04:32.547Z,15.22
2019-02-28T13:07:20.789Z,15.02
2019-02-28T13:10:08.871Z,15.95
2019-02-28T13:13:05.608Z,16.21
2019-02-28T13:15:46.604Z,16.12
2019-02-28T13:18:32.898Z,16.47
2019-02-28T13:21:18.668Z,16.78
2019-02-28T13:24:06.087Z,17.14
2019-02-28T13:26:52.584Z,17.17
2019-02-28T13:29:38.875Z,17.60
2019-02-28T13:32:28.335Z,17.70
2019-02-28T13:35:15.677Z,17.45
2019-02-28T13:38:02.802Z,17.64
2019-02-28T13:40:48.797Z,16.72
2019-02-28T13:43:34.713Z,16.90
2019-02-28T13:46:21.003Z,17.50
2019-02-28T13:49:08.434Z,17.68
2019-02-28T13:51:54.339Z,17.64
2019-02-28T13:54:42.097Z,17.56
2019-02-28T13:57:31.251Z,16.83
2019-02-28T14:00:21.862Z,15.63
2019-02-28T14:03:09.475Z,15.94
2019-02-28T14:05:56.143Z,15.31
2019-02-28T14:08:42.131Z,16.31
2019-02-28T14:11:30.213Z,16.77
2019-02-28T14:14:15.920Z,15.91
2019-02-28T14:17:02.033Z,15.73
2019-02-28T14:19:48.330Z,15.66
2019-02-28T14:22:33.993Z,16.19
2019-02-28T14:25:21.009Z,15.82
2019-02-28T14:28:07.377Z,15.87
2019-02-28T14:30:54.405Z,16.44
2019-02-28T14:33:41.826Z,15.95
2019-02-28T14:36:28.388Z,15.27
2019-02-28T14:39:14.560Z,14.99
2019-02-28T14:42:03.148Z,15.20
2019-02-28T14:44:47.795Z,15.80
2019-02-28T14:47:36.258Z,15.45
2019-02-28T14:50:22.703Z,15.97
2019-02-28T14:53:13.129Z,15.33
2019-02-28T14:55:56.211Z,15.24
2019-02-28T14:58:42.326Z,15.54
2019-02-28T15:01:28.348Z,15.75
2019-02-28T15:04:14.368Z,16.01
2019-02-28T15:07:03.035Z,15.84
2019-02-28T15:09:48.410Z,15.84
2019-02-28T15:12:34.220Z,15.37
2019-02-28T15:15:20.284Z,15.03
2019-02-28T15:18:06.095Z,14.93
2019-02-28T15:20:51.915Z,14.78
2019-02-28T15:23:37.695Z,14.36
2019-02-28T15:26:26.537Z,14.67
2019-02-28T15:29:11.873Z,14.34
2019-02-28T15:31:57.948Z,14.37
2019-02-28T15:34:43.749Z,14.02
2019-02-28T15:37:30.359Z,13.90
2019-02-28T15:40:24.721Z,13.98
2019-02-28T15:43:16.957Z,14.05
2019-02-28T15:45:59.969Z,13.96
2019-02-28T15:48:46.292Z,14.15
2019-02-28T15:51:33.016Z,13.64
2019-02-28T15:54:21.623Z,13.79
2019-02-28T15:57:06.654Z,13.69
2019-02-28T15:59:52.756Z,13.59
2019-02-28T16:02:42.168Z,13.66
2019-02-28T16:05:27.312Z,13.42
2019-02-28T16:08:13.593Z,13.45
2019-02-28T16:10:59.725Z,13.50
2019-02-28T16:13:45.499Z,13.54
2019-02-28T16:16:32.160Z,13.54
2019-02-28T16:19:18.787Z,13.23
2019-02-28T16:22:06.139Z,12.98
2019-02-28T16:24:52.342Z,12.79
2019-02-28T16:27:38.233Z,12.58
2019-02-28T16:30:24.133Z,12.41
2019-02-28T16:33:10.135Z,12.24
2019-02-28T16:35:56.295Z,12.24
2019-02-28T16:38:42.479Z,12.18
2019-02-28T16:41:30.013Z,12.11
2019-02-28T16:44:16.377Z,12.03
2019-02-28T16:47:02.481Z,12.04
2019-02-28T16:49:48.385Z,12.17
2019-02-28T16:52:37.336Z,12.12
2019-02-28T16:55:22.697Z,11.94
2019-02-28T16:58:08.569Z,11.91
2019-02-28T17:00:54.824Z,11.99
2019-02-28T17:03:41.743Z,11.90
2019-02-28T17:06:28.493Z,11.96
2019-02-28T17:09:18.856Z,11.93
2019-02-28T17:12:23.683Z,11.92
2019-02-28T17:15:26.397Z,11.81
2019-02-28T17:18:18.398Z,11.80
2019-02-28T17:21:03.391Z,11.81
2019-02-28T17:23:49.133Z,11.90
2019-02-28T17:27:06.369Z,11.76
2019-02-28T17:30:10.900Z,11.70
2019-02-28T17:32:56.900Z,11.76
2019-02-28T17:35:43.141Z,11.73
2019-02-28T17:38:28.741Z,11.70
2019-02-28T17:41:14.833Z,11.94
2019-02-28T17:44:38.618Z,11.91
2019-02-28T17:47:52.396Z,11.77
2019-02-28T17:51:18.850Z,11.63
2019-02-28T17:54:29.372Z,11.81
2019-02-28T17:57:48.813Z,11.67
2019-02-28T18:01:17.236Z,11.75
2019-02-28T18:04:45.829Z,11.57
2019-02-28T18:07:57.831Z,11.61
2019-02-28T18:11:21.017Z,11.65
2019-02-28T18:14:27.801Z,11.72
2019-02-28T18:17:55.533Z,11.71
2019-02-28T18:21:22.818Z,11.63
2019-02-28T18:24:38.034Z,11.53
2019-02-28T18:28:00.405Z,11.44
2019-02-28T18:31:06.126Z,11.38
2019-02-28T18:34:09.005Z,11.24
2019-02-28T18:36:54.592Z,11.33
2019-02-28T18:39:40.758Z,11.17
2019-02-28T18:42:26.943Z,11.09
2019-02-28T18:45:15.593Z,11.06
2019-02-28T18:48:02.707Z,11.11
2019-02-28T18:50:48.485Z,11.18
2019-02-28T18:53:34.341Z,11.33
2019-02-28T18:56:20.485Z,11.47
2019-02-28T18:59:06.262Z,11.50
2019-02-28T19:01:52.385Z,11.59
2019-02-28T19:04:39.313Z,11.58
2019-02-28T19:07:25.202Z,11.63
2019-02-28T19:10:11.229Z,11.62
2019-02-28T19:12:57.006Z,11.59
2019-02-28T19:15:42.733Z,11.63
2019-02-28T19:18:29.706Z,11.53
2019-02-28T19:21:15.666Z,11.55
2019-02-28T19:24:02.726Z,11.55
2019-02-28T19:26:48.921Z,11.74
2019-02-28T19:29:34.562Z,11.70
2019-02-28T19:32:20.531Z,11.54
2019-02-28T19:35:06.778Z,11.57
2019-02-28T19:37:52.551Z,11.62
2019-02-28T19:40:38.442Z,11.69
2019-02-28T19:43:24.737Z,11.70
2019-02-28T19:46:11.486Z,11.77
2019-02-28T19:48:58.866Z,11.73
2019-02-28T19:51:45.094Z,11.79
2019-02-28T19:54:30.856Z,11.67
2019-02-28T19:57:18.787Z,11.57
2019-02-28T20:00:06.068Z,11.65
2019-02-28T20:02:52.070Z,11.67
2019-02-28T20:05:38.225Z,11.73
2019-02-28T20:08:24.472Z,11.72
2019-02-28T20:11:10.474Z,11.67
2019-02-28T20:13:56.207Z,11.69
2019-02-28T20:16:42.301Z,11.56
2019-02-28T20:19:27.982Z,11.57
2019-02-28T20:22:13.855Z,11.59
2019-02-28T20:25:00.286Z,11.58
2019-02-28T20:27:46.329Z,11.65
2019-02-28T20:30:32.509Z,11.50
2019-02-28T20:33:18.583Z,11.60
2019-02-28T20:36:04.194Z,11.61
2019-02-28T20:38:52.226Z,11.71
2019-02-28T20:41:38.209Z,11.62
2019-02-28T20:44:25.268Z,11.57
2019-02-28T20:47:11.567Z,11.64
2019-02-28T20:49:57.690Z,11.58
2019-02-28T20:52:43.946Z,11.60
2019-02-28T20:55:31.785Z,11.50
2019-02-28T20:58:17.945Z,11.54
2019-02-28T21:01:04.050Z,11.67
2019-02-28T21:03:49.932Z,11.68
2019-02-28T21:06:36.257Z,11.65
2019-02-28T21:09:22.609Z,11.59
2019-02-28T21:12:08.621Z,11.72
2019-02-28T21:14:54.513Z,11.72
2019-02-28T21:17:40.501Z,11.54
2019-02-28T21:20:27.150Z,11.47
2019-02-28T21:23:13.963Z,11.50
2019-02-28T21:26:00.963Z,11.54
2019-02-28T21:28:46.682Z,11.38
2019-02-28T21:31:33.475Z,11.46
2019-02-28T21:34:19.380Z,11.61
2019-02-28T21:37:05.637Z,11.26
2019-02-28T21:39:51.991Z,11.42
2019-02-28T21:42:37.797Z,11.29
2019-02-28T21:45:23.610Z,11.47
2019-02-28T21:48:09.702Z,11.40
2019-02-28T21:50:55.535Z,11.43
2019-02-28T21:53:41.443Z,11.31
2019-02-28T21:56:27.641Z,11.44
2019-02-28T21:59:13.719Z,11.31
2019-02-28T22:01:59.658Z,11.33
2019-02-28T22:04:45.730Z,11.32
2019-02-28T22:07:31.603Z,11.31
2019-02-28T22:10:17.498Z,11.29
2019-02-28T22:13:03.595Z,11.24
2019-02-28T22:15:49.471Z,10.94
2019-02-28T22:18:35.379Z,10.76
2019-02-28T22:21:21.764Z,10.67
2019-02-28T22:24:07.716Z,10.78
2019-02-28T22:26:53.615Z,10.86
2019-02-28T22:29:39.719Z,10.56
2019-02-28T22:32:41.015Z,10.61
2019-02-28T22:35:36.372Z,10.48
2019-02-28T22:38:22.271Z,10.43
2019-02-28T22:41:08.059Z,10.29
2019-02-28T22:43:54.315Z,10.16
2019-02-28T22:46:40.103Z,10.36
2019-02-28T22:49:26.368Z,10.21
2019-02-28T22:52:12.606Z,10.39
2019-02-28T22:54:58.611Z,10.22
2019-02-28T22:57:44.423Z,10.40
2019-02-28T23:00:46.011Z,10.46
2019-02-28T23:03:32.324Z,10.36
2019-02-28T23:06:19.594Z,10.20
2019-02-28T23:09:06.575Z,10.09
2019-02-28T23:11:52.611Z,10.23
2019-02-28T23:14:38.615Z,10.21
2019-02-28T23:17:24.863Z,10.13
2019-02-28T23:20:10.705Z,10.12
2019-02-28T23:22:57.077Z,10.19
2019-02-28T23:25:42.944Z,10.11
2019-02-28T23:28:33.727Z,10.19
2019-02-28T23:31:59.668Z,10.16
2019-02-28T23:34:48.750Z,10.37
2019-02-28T23:37:34.432Z,10.39
2019-02-28T23:40:20.644Z,10.25
2019-02-28T23:43:06.347Z,10.28
2019-02-28T23:45:52.297Z,10.47
2019-02-28T23:48:38.289Z,10.26
2019-02-28T23:51:23.949Z,10.15
2019-02-28T23:54:12.027Z,10.17
2019-02-28T23:56:58.307Z,10.06
2019-02-28T23:59:44.195Z,10.15
